createdAt,value
2018-07-21T00:00:50.925Z,76.50
2018-07-21T00:02:11.427Z,76.59
2018-07-21T00:03:12.531Z,76.78
2018-07-21T00:04:12.483Z,76.69
2018-07-21T00:05:12.710Z,76.59
2018-07-21T00:06:12.948Z,76.69
2018-07-21T00:07:12.086Z,76.69
2018-07-21T00:08:11.878Z,76.69
2018-07-21T00:10:13.720Z,76.59
2018-07-21T00:11:35.219Z,76.50
2018-07-21T00:12:35.300Z,76.50
2018-07-21T00:13:35.092Z,76.21
2018-07-21T00:14:38.697Z,76.40
2018-07-21T00:15:35.699Z,76.31
2018-07-21T00:17:06.483Z,76.11
2018-07-21T00:18:05.245Z,76.44
2018-07-21T00:19:05.104Z,76.34
2018-07-21T00:20:05.752Z,76.25
2018-07-21T00:21:05.464Z,76.15
2018-07-21T00:22:05.258Z,76.06
2018-07-21T00:23:04.986Z,76.25
2018-07-21T00:24:26.097Z,76.34
2018-07-21T00:25:26.877Z,75.96
2018-07-21T00:26:26.793Z,76.34
2018-07-21T00:27:26.530Z,76.25
2018-07-21T00:28:26.174Z,76.44
2018-07-21T00:29:26.812Z,76.15
2018-07-21T00:30:26.638Z,75.96
2018-07-21T00:31:26.306Z,75.96
2018-07-21T00:32:27.005Z,75.92
2018-07-21T00:33:27.010Z,76.15
2018-07-21T00:34:27.889Z,76.06
2018-07-21T00:35:27.059Z,76.01
2018-07-21T00:36:26.822Z,76.01
2018-07-21T00:37:47.454Z,76.01
2018-07-21T00:38:48.271Z,75.92
2018-07-21T00:39:48.014Z,76.11
2018-07-21T00:40:47.620Z,76.01
2018-07-21T00:41:48.680Z,76.01
2018-07-21T00:42:47.815Z,76.01
2018-07-21T00:43:48.401Z,75.82
2018-07-21T00:44:48.565Z,76.11
2018-07-21T00:45:48.533Z,75.92
2018-07-21T00:46:48.601Z,76.21
2018-07-21T00:47:48.799Z,76.21
2018-07-21T00:48:47.879Z,76.31
2018-07-21T00:49:48.012Z,75.92
2018-07-21T00:50:48.255Z,76.01
2018-07-21T00:51:47.781Z,76.01
2018-07-21T00:52:48.756Z,76.21
2018-07-21T00:53:47.416Z,76.31
2018-07-21T00:54:48.217Z,76.21
2018-07-21T00:56:29.800Z,76.21
2018-07-21T00:58:13.112Z,76.31
2018-07-21T00:59:55.582Z,76.21
2018-07-21T01:00:54.789Z,76.31
2018-07-21T01:01:55.207Z,76.50
2018-07-21T01:02:54.904Z,76.40
2018-07-21T01:04:15.262Z,76.50
2018-07-21T01:05:16.148Z,76.21
2018-07-21T01:06:16.041Z,76.59
2018-07-21T01:07:15.962Z,76.50
2018-07-21T01:08:15.637Z,76.50
2018-07-21T01:09:15.475Z,76.11
2018-07-21T01:10:36.308Z,76.11
2018-07-21T01:11:37.725Z,76.11
2018-07-21T01:12:37.192Z,76.31
2018-07-21T01:13:37.459Z,76.50
2018-07-21T01:14:37.592Z,76.40
2018-07-21T01:15:37.228Z,76.40
2018-07-21T01:16:37.309Z,76.98
2018-07-21T01:17:37.350Z,77.46
2018-07-21T01:18:37.469Z,76.01
2018-07-21T01:19:37.146Z,76.21
2018-07-21T01:20:37.152Z,76.21
2018-07-21T01:21:57.880Z,76.21
2018-07-21T01:22:57.885Z,76.31
2018-07-21T01:23:57.568Z,76.50
2018-07-21T01:24:58.584Z,77.08
2018-07-21T01:25:58.365Z,76.78
2018-07-21T01:26:58.368Z,77.26
2018-07-21T01:28:18.716Z,76.69
2018-07-21T01:29:19.771Z,77.08
2018-07-21T01:30:19.847Z,77.08
2018-07-21T01:31:19.047Z,76.88
2018-07-21T01:32:40.024Z,76.69
2018-07-21T01:33:39.559Z,76.98
2018-07-21T01:34:40.643Z,77.26
2018-07-21T01:35:40.294Z,76.98
2018-07-21T01:36:40.094Z,77.26
2018-07-21T01:37:39.886Z,77.17
2018-07-21T01:38:40.781Z,77.17
2018-07-21T01:39:40.904Z,76.88
2018-07-21T01:40:40.823Z,77.46
2018-07-21T01:42:01.022Z,77.75
2018-07-21T01:43:02.064Z,77.17
2018-07-21T01:44:01.009Z,77.26
2018-07-21T01:45:01.628Z,76.98
2018-07-21T01:46:01.791Z,77.17
2018-07-21T01:47:01.489Z,77.46
2018-07-21T01:48:01.676Z,76.88
2018-07-21T01:49:01.726Z,77.08
2018-07-21T01:50:01.457Z,76.88
2018-07-21T01:51:01.734Z,77.36
2018-07-21T01:52:01.717Z,77.46
2018-07-21T01:53:01.933Z,77.26
2018-07-21T01:54:22.883Z,77.46
2018-07-21T01:55:22.745Z,77.75
2018-07-21T01:56:23.277Z,77.65
2018-07-21T01:57:23.366Z,77.65
2018-07-21T01:58:23.394Z,77.65
2018-07-21T01:59:23.331Z,78.03
2018-07-21T02:00:23.316Z,78.03
2018-07-21T02:01:22.955Z,78.13
2018-07-21T02:02:22.986Z,77.75
2018-07-21T02:03:23.232Z,78.03
2018-07-21T02:04:28.029Z,77.56
2018-07-21T02:05:23.185Z,76.98
2018-07-21T02:06:44.229Z,76.98
2018-07-21T02:07:44.052Z,77.26
2018-07-21T02:08:44.719Z,77.17
2018-07-21T02:09:44.787Z,77.56
2018-07-21T02:11:05.092Z,77.75
2018-07-21T02:12:06.049Z,79.19
2018-07-21T02:13:05.902Z,80.25
2018-07-21T02:14:26.758Z,81.07
2018-07-21T02:15:47.932Z,84.25
2018-07-21T02:16:48.135Z,88.19
2018-07-21T02:17:47.817Z,92.38
2018-07-21T02:18:47.557Z,97.19
2018-07-21T02:19:48.685Z,99.01
2018-07-21T02:20:52.016Z,99.99
2018-07-21T02:21:48.093Z,99.99
2018-07-21T02:22:48.230Z,99.99
2018-07-21T02:23:48.162Z,99.99
2018-07-21T02:24:48.151Z,99.99
2018-07-21T02:25:48.241Z,99.99
2018-07-21T02:26:47.915Z,99.99
2018-07-21T02:27:48.007Z,99.99
2018-07-21T02:28:47.860Z,99.99
2018-07-21T02:29:47.600Z,99.99
2018-07-21T02:30:48.741Z,99.99
2018-07-21T02:31:48.719Z,99.99
2018-07-21T02:32:47.677Z,99.99
2018-07-21T02:33:48.897Z,99.99
2018-07-21T02:34:47.740Z,99.99
2018-07-21T02:35:48.835Z,99.99
2018-07-21T02:36:47.760Z,99.87
2018-07-21T02:37:47.951Z,95.70
2018-07-21T02:38:48.208Z,96.75
2018-07-21T02:39:48.261Z,98.48
2018-07-21T02:40:48.520Z,91.96
2018-07-21T02:41:48.658Z,87.16
2018-07-21T02:42:48.363Z,85.53
2018-07-21T02:43:48.059Z,85.92
2018-07-21T02:45:29.261Z,87.41
2018-07-21T02:46:30.435Z,87.79
2018-07-21T02:47:30.305Z,87.12
2018-07-21T02:48:30.130Z,85.78
2018-07-21T02:49:30.369Z,83.09
2018-07-21T02:50:29.652Z,80.89
2018-07-21T02:51:29.841Z,81.08
2018-07-21T02:52:30.000Z,79.26
2018-07-21T02:53:30.288Z,77.53
2018-07-21T02:54:30.387Z,75.81
2018-07-21T02:55:30.298Z,74.37
2018-07-21T02:56:30.415Z,73.32
2018-07-21T02:57:30.524Z,72.74
2018-07-21T02:58:29.405Z,72.23
2018-07-21T02:59:30.444Z,70.15
2018-07-21T03:00:29.383Z,68.43
2018-07-21T03:01:30.242Z,67.28
2018-07-21T03:02:29.928Z,66.32
2018-07-21T03:03:29.813Z,65.26
2018-07-21T03:08:39.309Z,62.20
2018-07-21T03:09:38.860Z,61.34
2018-07-21T03:10:39.559Z,60.57
2018-07-21T03:11:39.373Z,60.09
2018-07-21T03:12:39.305Z,59.42
2018-07-21T03:13:39.425Z,58.84
2018-07-21T03:14:39.221Z,58.37
2018-07-21T03:15:38.961Z,58.37
2018-07-21T03:16:39.839Z,58.84
2018-07-21T03:17:39.916Z,60.19
2018-07-21T03:18:40.864Z,60.57
2018-07-21T03:19:39.972Z,60.19
2018-07-21T03:20:43.559Z,60.19
2018-07-21T03:21:59.792Z,60.67
2018-07-21T03:23:00.787Z,61.24
2018-07-21T03:24:00.939Z,62.87
2018-07-21T03:25:03.617Z,63.64
2018-07-21T03:26:00.394Z,64.22
2018-07-21T03:27:00.076Z,67.38
2018-07-21T03:28:00.579Z,67.47
2018-07-21T03:29:00.532Z,67.95
2018-07-21T03:30:00.505Z,67.57
2018-07-21T03:31:00.584Z,67.54
2018-07-21T03:32:00.945Z,66.96
2018-07-21T03:33:23.933Z,66.86
2018-07-21T03:34:22.111Z,66.48
2018-07-21T03:35:22.025Z,66.19
2018-07-21T03:36:21.888Z,66.86
2018-07-21T03:37:22.003Z,66.86
2018-07-21T03:38:21.640Z,66.09
2018-07-21T03:39:22.299Z,66.77
2018-07-21T03:40:22.390Z,67.25
2018-07-21T03:41:22.011Z,66.48
2018-07-21T03:42:23.780Z,66.00
2018-07-21T03:43:21.931Z,66.00
2018-07-21T03:44:22.238Z,66.58
2018-07-21T03:45:22.869Z,65.91
2018-07-21T03:46:22.617Z,65.91
2018-07-21T03:47:21.967Z,66.00
2018-07-21T03:48:21.799Z,66.00
2018-07-21T03:49:22.441Z,66.96
2018-07-21T03:50:21.457Z,71.17
2018-07-21T03:51:21.693Z,71.08
2018-07-21T03:52:22.530Z,70.21
2018-07-21T03:53:42.349Z,70.89
2018-07-21T03:54:43.802Z,71.66
2018-07-21T03:55:43.779Z,73.28
2018-07-21T03:56:43.042Z,75.48
2018-07-21T03:57:42.784Z,75.01
2018-07-21T03:58:42.396Z,75.39
2018-07-21T03:59:42.512Z,73.66
2018-07-21T04:00:44.297Z,72.99
2018-07-21T04:01:43.139Z,72.71
2018-07-21T04:02:42.958Z,76.54
2018-07-21T04:04:05.106Z,79.22
2018-07-21T04:05:06.196Z,77.21
2018-07-21T04:06:06.071Z,77.69
2018-07-21T04:07:03.624Z,75.96
2018-07-21T04:08:04.386Z,75.10
2018-07-21T04:09:04.151Z,74.91
2018-07-21T04:10:04.436Z,74.43
2018-07-21T04:11:04.189Z,75.39
2018-07-21T04:12:24.725Z,75.77
2018-07-21T04:13:24.783Z,76.82
2018-07-21T04:14:24.579Z,77.88
2018-07-21T04:15:24.779Z,77.21
2018-07-21T04:16:24.727Z,77.78
2018-07-21T04:17:45.720Z,78.36
2018-07-21T04:18:45.608Z,77.11
2018-07-21T04:19:46.150Z,76.64
2018-07-21T04:20:45.947Z,75.58
2018-07-21T04:21:45.882Z,74.91
2018-07-21T04:22:45.618Z,74.05
2018-07-21T04:23:46.264Z,73.95
2018-07-21T04:25:27.327Z,75.58
2018-07-21T04:26:27.039Z,75.96
2018-07-21T04:27:28.929Z,75.29
2018-07-21T04:28:27.958Z,74.91
2018-07-21T04:29:27.449Z,74.52
2018-07-21T04:30:27.046Z,74.91
2018-07-21T04:31:28.049Z,77.40
2018-07-21T04:32:27.831Z,79.41
2018-07-21T04:33:48.227Z,84.58
2018-07-21T04:34:48.826Z,84.11
2018-07-21T04:35:49.039Z,83.15
2018-07-21T04:36:48.789Z,83.63
2018-07-21T04:38:09.754Z,84.97
2018-07-21T04:39:09.814Z,84.01
2018-07-21T04:40:10.052Z,85.35
2018-07-21T04:41:30.528Z,87.37
2018-07-21T04:42:30.361Z,87.94
2018-07-21T04:43:31.376Z,88.03
2018-07-21T04:44:51.347Z,88.51
2018-07-21T04:45:52.065Z,89.09
2018-07-21T04:46:51.980Z,90.05
2018-07-21T04:47:52.245Z,92.54
2018-07-21T04:48:51.858Z,92.82
2018-07-21T04:50:12.578Z,89.76
2018-07-21T04:51:33.264Z,89.37
2018-07-21T04:52:34.276Z,89.76
2018-07-21T04:53:33.918Z,89.18
2018-07-21T04:54:33.489Z,87.46
2018-07-21T04:55:33.468Z,92.06
2018-07-21T04:56:54.936Z,92.06
2018-07-21T04:57:55.005Z,93.88
2018-07-21T04:58:55.104Z,96.66
2018-07-21T04:59:54.980Z,93.30
2018-07-21T05:00:54.737Z,97.90
2018-07-21T05:01:55.600Z,94.26
2018-07-21T05:02:55.704Z,95.79
2018-07-21T05:03:54.621Z,94.64
2018-07-21T05:04:55.334Z,95.41
2018-07-21T05:05:55.473Z,93.73
2018-07-21T05:06:55.670Z,98.43
2018-07-21T05:08:08.974Z,99.24
2018-07-21T05:08:55.358Z,99.99
2018-07-21T05:09:55.174Z,99.99
2018-07-21T05:11:15.471Z,99.99
2018-07-21T05:12:16.650Z,99.99
2018-07-21T05:13:15.556Z,99.99
2018-07-21T05:14:16.412Z,99.99
2018-07-21T05:14:57.688Z,99.99
2018-07-21T05:15:59.310Z,99.99
2018-07-21T05:16:58.298Z,99.99
2018-07-21T05:17:58.297Z,99.99
2018-07-21T05:18:58.543Z,99.99
2018-07-21T05:19:58.719Z,99.99
2018-07-21T05:20:57.962Z,99.99
2018-07-21T05:21:58.227Z,99.99
2018-07-21T05:22:58.436Z,99.99
2018-07-21T05:23:58.450Z,99.99
2018-07-21T05:24:58.412Z,99.99
2018-07-21T05:25:58.285Z,99.99
2018-07-21T05:26:58.242Z,99.99
2018-07-21T05:27:58.511Z,99.99
2018-07-21T05:28:58.210Z,99.99
2018-07-21T05:29:58.149Z,99.99
2018-07-21T05:30:58.237Z,99.99
2018-07-21T05:32:39.851Z,99.99
2018-07-21T05:33:41.064Z,99.99
2018-07-21T05:34:39.897Z,99.99
2018-07-21T05:35:41.051Z,99.99
2018-07-21T05:36:39.904Z,99.99
2018-07-21T05:38:23.058Z,99.99
2018-07-21T05:39:24.082Z,99.99
2018-07-21T05:40:45.220Z,99.99
2018-07-21T05:41:45.387Z,99.99
2018-07-21T05:42:46.361Z,99.99
2018-07-21T05:43:45.210Z,99.99
2018-07-21T05:44:45.422Z,99.99
2018-07-21T05:46:27.066Z,99.99
2018-07-21T05:47:26.773Z,99.99
2018-07-21T05:48:48.202Z,99.99
2018-07-21T05:49:49.142Z,99.99
2018-07-21T05:50:49.317Z,99.99
2018-07-21T05:51:49.030Z,99.99
2018-07-21T05:52:48.799Z,99.99
2018-07-21T05:53:48.459Z,99.99
2018-07-21T05:54:49.496Z,99.99
2018-07-21T05:55:51.684Z,99.99
2018-07-21T05:56:48.754Z,99.99
2018-07-21T05:57:48.706Z,99.99
2018-07-21T05:58:48.592Z,99.99
2018-07-21T06:00:29.917Z,99.99
2018-07-21T06:01:30.880Z,99.99
2018-07-21T06:02:52.025Z,99.99
2018-07-21T06:03:52.053Z,99.99
2018-07-21T06:04:52.373Z,99.99
2018-07-21T06:05:52.521Z,99.99
2018-07-21T06:07:12.895Z,99.99
2018-07-21T06:08:35.061Z,99.99
2018-07-21T06:09:56.089Z,99.99
2018-07-21T06:10:56.081Z,99.99
2018-07-21T06:11:56.809Z,99.99
2018-07-21T06:12:57.642Z,99.99
2018-07-21T06:13:56.611Z,99.99
2018-07-21T06:14:56.904Z,99.99
2018-07-21T06:15:55.834Z,99.99
2018-07-21T06:16:58.093Z,99.99
2018-07-21T06:18:16.763Z,99.99
2018-07-21T06:19:16.624Z,99.99
2018-07-21T06:20:28.433Z,99.99
2018-07-21T06:21:17.303Z,99.99
2018-07-21T06:22:20.402Z,99.99
2018-07-21T06:23:18.411Z,99.99
2018-07-21T06:24:19.410Z,99.99
2018-07-21T06:25:40.105Z,99.99
2018-07-21T06:26:39.110Z,99.99
2018-07-21T06:28:43.329Z,99.99
2018-07-21T06:29:43.270Z,99.99
2018-07-21T06:30:43.187Z,99.99
2018-07-21T06:31:43.520Z,99.99
2018-07-21T06:32:43.798Z,99.99
2018-07-21T06:33:43.955Z,99.99
2018-07-21T06:34:45.131Z,99.99
2018-07-21T06:35:44.201Z,99.99
2018-07-21T06:36:43.377Z,99.99
2018-07-21T06:37:43.210Z,99.99
2018-07-21T06:38:42.995Z,99.99
2018-07-21T06:39:45.756Z,99.99
2018-07-21T06:40:45.447Z,99.99
2018-07-21T06:41:43.139Z,99.99
2018-07-21T06:42:44.900Z,99.99
2018-07-21T06:43:44.055Z,99.99
2018-07-21T06:44:43.070Z,99.99
2018-07-21T06:45:44.173Z,99.99
2018-07-21T06:46:43.405Z,99.99
2018-07-21T06:47:43.469Z,99.99
2018-07-21T06:48:43.454Z,99.99
2018-07-21T06:49:45.936Z,99.99
2018-07-21T06:50:43.798Z,99.99
2018-07-21T06:51:43.533Z,99.99
2018-07-21T06:52:43.898Z,99.99
2018-07-21T06:53:44.491Z,99.99
2018-07-21T06:54:43.910Z,99.99
2018-07-21T06:55:44.277Z,99.99
2018-07-21T06:56:43.367Z,99.99
2018-07-21T06:58:04.500Z,99.99
2018-07-21T06:59:05.276Z,99.99
2018-07-21T07:00:05.561Z,99.99
2018-07-21T07:01:04.922Z,99.99
2018-07-21T07:02:04.733Z,99.99
2018-07-21T07:03:05.032Z,99.99
2018-07-21T07:04:05.026Z,99.99
2018-07-21T07:05:04.839Z,99.99
2018-07-21T07:06:05.138Z,99.99
2018-07-21T07:07:26.547Z,99.99
2018-07-21T07:08:26.699Z,99.99
2018-07-21T07:09:26.629Z,99.99
2018-07-21T07:10:26.832Z,99.99
2018-07-21T07:11:48.360Z,99.99
2018-07-21T07:12:48.890Z,99.99
2018-07-21T07:13:48.077Z,99.99
2018-07-21T07:14:48.474Z,99.99
2018-07-21T07:15:48.712Z,99.99
2018-07-21T07:16:47.783Z,99.99
2018-07-21T07:17:47.668Z,99.99
2018-07-21T07:18:48.839Z,99.99
2018-07-21T07:19:47.828Z,99.99
2018-07-21T07:20:48.059Z,99.99
2018-07-21T07:21:48.429Z,99.99
2018-07-21T07:23:09.428Z,99.99
2018-07-21T07:24:10.676Z,99.99
2018-07-21T07:25:09.648Z,99.99
2018-07-21T07:26:09.641Z,99.99
2018-07-21T07:27:31.162Z,99.99
2018-07-21T07:28:31.448Z,99.99
2018-07-21T07:29:52.475Z,99.99
2018-07-21T07:31:16.580Z,99.99
2018-07-21T07:32:16.007Z,99.99
2018-07-21T07:33:15.912Z,99.99
2018-07-21T07:34:15.860Z,99.99
2018-07-21T07:35:15.880Z,99.99
2018-07-21T07:36:15.742Z,99.99
2018-07-21T07:37:16.731Z,99.99
2018-07-21T07:38:15.990Z,99.02
2018-07-21T07:39:15.872Z,99.74
2018-07-21T07:40:15.732Z,98.73
2018-07-21T07:41:16.030Z,95.35
2018-07-21T07:42:16.415Z,93.62
2018-07-21T07:43:16.354Z,91.88
2018-07-21T07:44:16.366Z,93.66
2018-07-21T07:45:16.182Z,93.90
2018-07-21T07:46:16.681Z,92.55
2018-07-21T07:47:16.088Z,90.13
2018-07-21T07:48:16.574Z,91.91
2018-07-21T07:49:16.936Z,88.82
2018-07-21T07:50:15.804Z,85.73
2018-07-21T07:51:16.694Z,87.27
2018-07-21T07:52:15.946Z,87.66
2018-07-21T07:53:15.822Z,87.85
2018-07-21T07:54:16.599Z,87.85
2018-07-21T07:55:15.634Z,88.05
2018-07-21T07:56:15.687Z,90.47
2018-07-21T07:57:16.969Z,86.51
2018-07-21T07:58:16.796Z,85.78
2018-07-21T07:59:16.115Z,86.94
2018-07-21T08:00:16.591Z,86.17
2018-07-21T08:01:15.995Z,85.84
2018-07-21T08:02:16.210Z,86.61
2018-07-21T08:03:17.058Z,86.90
2018-07-21T08:04:16.379Z,88.25
2018-07-21T08:05:16.581Z,87.29
2018-07-21T08:06:15.696Z,87.58
2018-07-21T08:07:37.351Z,87.77
2018-07-21T08:08:38.352Z,86.42
2018-07-21T08:09:38.626Z,86.07
2018-07-21T08:10:37.858Z,84.14
2018-07-21T08:11:37.695Z,83.89
2018-07-21T08:12:37.625Z,84.47
2018-07-21T08:13:37.518Z,83.45
2018-07-21T08:15:19.289Z,81.52
2018-07-21T08:16:19.486Z,81.90
2018-07-21T08:17:40.486Z,82.10
2018-07-21T08:18:41.774Z,80.94
2018-07-21T08:19:40.906Z,79.43
2018-07-21T08:20:41.005Z,78.27
2018-07-21T08:21:41.418Z,78.27
2018-07-21T08:23:23.575Z,77.63
2018-07-21T08:24:23.816Z,78.34
2018-07-21T08:25:24.105Z,75.34
2018-07-21T08:26:25.057Z,76.15
2018-07-21T08:27:24.227Z,74.32
2018-07-21T08:28:23.687Z,73.19
2018-07-21T08:29:23.517Z,72.99
2018-07-21T08:30:23.867Z,72.83
2018-07-21T08:31:24.054Z,73.07
2018-07-21T08:32:45.403Z,70.99
2018-07-21T08:33:45.664Z,71.48
2018-07-21T08:34:45.501Z,72.83
2018-07-21T08:35:45.747Z,71.28
2018-07-21T08:36:45.828Z,71.80
2018-07-21T08:37:45.699Z,70.48
2018-07-21T08:38:45.432Z,71.39
2018-07-21T08:39:45.811Z,70.61
2018-07-21T08:40:46.063Z,65.98
2018-07-21T08:41:46.361Z,65.59
2018-07-21T08:43:06.828Z,64.14
2018-07-21T08:44:07.068Z,63.36
2018-07-21T08:45:07.340Z,64.33
2018-07-21T08:46:27.438Z,64.72
2018-07-21T08:47:28.746Z,63.94
2018-07-21T08:48:28.600Z,64.59
2018-07-21T08:49:28.828Z,65.75
2018-07-21T08:50:27.609Z,65.08
2018-07-21T08:51:27.981Z,62.94
2018-07-21T08:52:27.916Z,62.68
2018-07-21T08:53:28.034Z,62.90
2018-07-21T08:54:28.250Z,60.41
2018-07-21T08:55:28.547Z,60.66
2018-07-21T08:56:27.828Z,59.39
2018-07-21T08:57:27.593Z,57.96
2018-07-21T08:58:27.416Z,60.33
2018-07-21T08:59:28.788Z,58.25
2018-07-21T09:00:27.754Z,57.84
2018-07-21T09:01:28.853Z,58.71
2018-07-21T09:02:27.905Z,58.71
2018-07-21T09:03:28.240Z,59.03
2018-07-21T09:04:50.571Z,58.67
2018-07-21T09:05:50.904Z,56.75
2018-07-21T09:06:50.339Z,55.71
2018-07-21T09:07:51.081Z,53.66
2018-07-21T09:08:51.440Z,54.14
2018-07-21T09:10:11.036Z,55.29
2018-07-21T09:11:11.373Z,56.29
2018-07-21T09:12:11.311Z,55.51
2018-07-21T09:13:11.511Z,53.66
2018-07-21T09:14:11.440Z,52.68
2018-07-21T09:15:14.194Z,53.36
2018-07-21T09:16:31.834Z,54.31
2018-07-21T09:17:32.802Z,54.68
2018-07-21T09:18:33.906Z,53.41
2018-07-21T09:19:34.087Z,53.77
2018-07-21T09:20:32.907Z,54.72
2018-07-21T09:21:53.925Z,57.54
2018-07-21T09:22:55.135Z,56.96
2018-07-21T09:23:54.351Z,58.51
2018-07-21T09:24:54.709Z,57.45
2018-07-21T09:25:54.466Z,56.67
2018-07-21T09:26:54.338Z,57.15
2018-07-21T09:28:37.547Z,56.79
2018-07-21T09:29:37.415Z,56.60
2018-07-21T09:30:37.217Z,56.40
2018-07-21T09:31:38.588Z,55.72
2018-07-21T09:32:38.086Z,54.55
2018-07-21T09:33:39.022Z,56.30
2018-07-21T09:34:38.031Z,56.04
2018-07-21T09:35:38.072Z,56.46
2018-07-21T09:36:38.285Z,54.14
2018-07-21T09:37:57.850Z,53.95
2018-07-21T09:38:58.729Z,54.63
2018-07-21T09:39:58.743Z,54.73
2018-07-21T09:40:59.024Z,54.85
2018-07-21T09:41:57.869Z,55.34
2018-07-21T09:42:59.120Z,53.88
2018-07-21T09:43:58.163Z,54.66
2018-07-21T09:44:58.268Z,53.49
2018-07-21T09:46:02.938Z,54.07
2018-07-21T09:46:59.178Z,53.58
2018-07-21T09:47:58.130Z,53.09
2018-07-21T09:48:58.180Z,53.81
2018-07-21T09:49:58.355Z,53.91
2018-07-21T09:51:30.916Z,54.39
2018-07-21T09:52:18.973Z,53.22
2018-07-21T09:53:16.460Z,52.80
2018-07-21T09:55:11.297Z,53.34
2018-07-21T09:57:15.804Z,55.19
2018-07-21T09:58:12.650Z,56.26
2018-07-21T09:59:04.674Z,55.68
2018-07-21T10:00:04.457Z,54.60
2018-07-21T10:00:59.449Z,55.61
2018-07-21T10:01:57.345Z,54.44
2018-07-21T10:02:56.990Z,53.78
2018-07-21T10:03:57.188Z,53.78
2018-07-21T10:04:56.147Z,53.91
2018-07-21T10:05:55.149Z,52.83
2018-07-21T10:06:56.418Z,52.73
2018-07-21T10:07:55.384Z,53.64
2018-07-21T10:08:55.214Z,52.59
2018-07-21T10:09:55.255Z,53.00
2018-07-21T10:10:55.523Z,51.56
2018-07-21T10:11:55.573Z,51.00
2018-07-21T10:13:16.824Z,49.92
2018-07-21T10:14:17.269Z,49.02
2018-07-21T10:15:38.811Z,50.59
2018-07-21T10:16:38.757Z,51.27
2018-07-21T10:17:59.964Z,50.22
2018-07-21T10:19:00.257Z,51.22
2018-07-21T10:20:01.354Z,49.29
2018-07-21T10:21:00.315Z,47.74
2018-07-21T10:22:00.935Z,47.94
2018-07-21T10:22:59.758Z,47.67
2018-07-21T10:24:00.164Z,48.38
2018-07-21T10:26:40.682Z,46.13
2018-07-21T10:27:41.648Z,45.17
2018-07-21T10:32:35.539Z,43.24
2018-07-21T10:33:36.982Z,43.32
2018-07-21T10:34:36.002Z,43.42
2018-07-21T10:35:35.740Z,42.59
2018-07-21T10:36:37.498Z,44.02
2018-07-21T10:37:36.125Z,44.01
2018-07-21T10:38:35.967Z,44.30
2018-07-21T10:39:59.309Z,46.17
2018-07-21T10:40:59.840Z,44.98
2018-07-21T10:41:59.550Z,44.27
2018-07-21T10:43:00.501Z,44.45
2018-07-21T10:44:00.514Z,45.12
2018-07-21T10:44:59.964Z,45.78
2018-07-21T10:46:00.814Z,45.78
2018-07-21T10:47:00.061Z,46.17
2018-07-21T10:48:23.667Z,46.95
2018-07-21T10:49:23.673Z,47.35
2018-07-21T10:50:23.964Z,46.59
2018-07-21T10:51:23.614Z,46.17
2018-07-21T10:52:23.359Z,45.76
2018-07-21T10:53:24.586Z,46.72
2018-07-21T10:54:23.834Z,46.98
2018-07-21T10:55:23.874Z,47.97
2018-07-21T10:57:11.161Z,48.48
2018-07-21T10:58:11.808Z,48.09
2018-07-21T10:59:11.505Z,47.69
2018-07-21T11:00:36.012Z,47.28
2018-07-21T11:01:57.764Z,48.75
2018-07-21T11:02:57.630Z,48.65
2018-07-21T11:03:58.947Z,47.94
2018-07-21T11:04:59.327Z,48.33
2018-07-21T11:06:26.390Z,48.41
2018-07-21T11:07:26.228Z,49.09
2018-07-21T11:08:25.727Z,48.80
2018-07-21T11:09:26.376Z,49.70
2018-07-21T11:10:27.395Z,49.11
2018-07-21T11:11:26.327Z,48.11
2018-07-21T11:12:27.672Z,49.11
2018-07-21T11:13:50.124Z,48.82
2018-07-21T11:14:50.779Z,48.04
2018-07-21T11:15:50.436Z,48.43
2018-07-21T11:16:50.636Z,48.92
2018-07-21T11:17:51.619Z,48.92
2018-07-21T11:18:50.871Z,49.53
2018-07-21T11:20:35.887Z,48.19
2018-07-21T11:21:35.666Z,47.30
2018-07-21T11:22:36.624Z,48.21
2018-07-21T11:23:36.638Z,47.35
2018-07-21T11:24:36.179Z,46.56
2018-07-21T11:25:36.159Z,47.13
2018-07-21T11:26:36.531Z,46.81
2018-07-21T11:27:36.754Z,48.11
2018-07-21T11:28:36.136Z,47.01
2018-07-21T11:29:35.903Z,47.11
2018-07-21T11:30:36.480Z,47.03
2018-07-21T11:31:36.235Z,47.06
2018-07-21T11:32:36.817Z,46.47
2018-07-21T11:33:35.692Z,47.25
2018-07-21T11:34:41.359Z,47.35
2018-07-21T11:35:38.055Z,47.06
2018-07-21T11:36:36.801Z,46.54
2018-07-21T11:37:37.391Z,46.15
2018-07-21T11:38:36.672Z,47.81
2018-07-21T11:39:36.759Z,46.03
2018-07-21T11:40:38.373Z,47.20
2018-07-21T11:41:42.597Z,47.50
2018-07-21T11:42:36.035Z,46.91
2018-07-21T11:43:35.965Z,47.30
2018-07-21T11:44:37.165Z,46.84
2018-07-21T11:46:02.393Z,45.98
2018-07-21T11:47:00.524Z,46.05
2018-07-21T11:48:00.522Z,46.64
2018-07-21T11:49:01.688Z,46.74
2018-07-21T11:50:03.154Z,46.64
2018-07-21T11:51:00.569Z,47.23
2018-07-21T11:52:00.052Z,45.93
2018-07-21T11:53:01.179Z,45.44
2018-07-21T11:54:01.079Z,46.28
2018-07-21T11:55:00.112Z,47.94
2018-07-21T11:56:00.125Z,48.43
2018-07-21T11:57:00.305Z,48.82
2018-07-21T11:58:00.962Z,48.14
2018-07-21T11:59:01.167Z,47.45
2018-07-21T12:00:44.752Z,48.60
2018-07-21T12:01:45.213Z,48.63
2018-07-21T12:03:28.886Z,47.60
2018-07-21T12:04:28.745Z,47.30
2018-07-21T12:05:28.620Z,48.11
2018-07-21T12:06:30.115Z,47.72
2018-07-21T12:07:29.566Z,46.76
2018-07-21T12:08:31.117Z,46.15
2018-07-21T12:09:30.643Z,45.95
2018-07-21T12:10:31.323Z,45.86
2018-07-21T13:31:14.779Z,40.21
2018-07-21T13:32:39.967Z,40.58
2018-07-21T13:33:39.415Z,40.48
2018-07-21T13:34:38.896Z,40.51
2018-07-21T13:35:39.333Z,40.45
2018-07-21T13:36:38.745Z,39.68
2018-07-21T13:37:39.021Z,39.50
2018-07-21T13:38:39.345Z,38.82
2018-07-21T13:39:39.564Z,39.32
2018-07-21T13:40:39.041Z,38.73
2018-07-21T13:41:39.607Z,38.55
2018-07-21T13:42:38.942Z,38.92
2018-07-21T13:43:40.223Z,38.13
2018-07-21T13:44:38.694Z,38.31
2018-07-21T13:45:39.216Z,38.49
2018-07-21T13:46:39.383Z,39.76
2018-07-21T13:47:38.862Z,39.56
2018-07-21T13:48:39.327Z,38.57
2018-07-21T13:50:04.109Z,39.95
2018-07-21T13:51:03.564Z,39.25
2018-07-21T13:52:03.037Z,38.45
2018-07-21T13:53:04.722Z,38.95
2018-07-21T13:54:03.253Z,38.54
2018-07-21T13:55:26.881Z,38.20
2018-07-21T13:56:27.969Z,39.58
2018-07-21T13:57:27.445Z,39.50
2018-07-21T13:58:27.580Z,38.51
2018-07-21T13:59:26.929Z,40.09
2018-07-21T14:00:50.464Z,39.70
2018-07-21T14:01:50.982Z,40.69
2018-07-21T14:02:49.376Z,40.27
2018-07-21T14:03:52.013Z,40.94
2018-07-21T14:05:13.487Z,40.72
2018-07-21T14:06:14.055Z,40.88
2018-07-21T14:07:14.579Z,41.94
2018-07-21T14:08:14.065Z,41.43
2018-07-21T14:09:14.453Z,42.53
2018-07-21T14:10:11.842Z,43.32
2018-07-21T14:11:14.211Z,42.43
2018-07-21T14:12:13.738Z,41.77
2018-07-21T14:13:14.464Z,41.96
2018-07-21T14:14:37.452Z,41.39
2018-07-21T14:15:38.017Z,41.71
2018-07-21T14:16:38.298Z,40.84
2018-07-21T14:17:37.740Z,40.35
2018-07-21T14:18:38.636Z,40.21
2018-07-21T14:19:38.064Z,41.49
2018-07-21T14:20:38.043Z,40.11
2018-07-21T14:21:37.566Z,40.51
2018-07-21T14:22:38.570Z,41.09
2018-07-21T14:24:01.415Z,41.39
2018-07-21T14:25:01.863Z,41.39
2018-07-21T14:26:02.491Z,40.98
2018-07-21T14:27:01.747Z,40.31
2018-07-21T14:28:04.237Z,39.90
2018-07-21T14:29:00.667Z,40.27
2018-07-21T14:30:01.707Z,41.14
2018-07-21T14:31:02.931Z,42.90
2018-07-21T14:32:02.534Z,43.51
2018-07-21T14:33:03.183Z,44.12
2018-07-21T14:34:01.704Z,42.06
2018-07-21T14:35:25.272Z,42.45
2018-07-21T14:36:50.628Z,42.35
2018-07-21T14:37:51.064Z,42.65
2018-07-21T14:38:50.619Z,42.45
2018-07-21T14:39:51.078Z,44.02
2018-07-21T14:40:50.442Z,41.96
2018-07-21T14:41:51.914Z,41.96
2018-07-21T14:42:50.392Z,42.85
2018-07-21T14:43:51.013Z,42.94
2018-07-21T14:44:50.397Z,41.59
2018-07-21T14:45:50.968Z,43.95
2018-07-21T14:46:50.235Z,42.86
2018-07-21T14:47:50.792Z,42.28
2018-07-21T14:48:51.055Z,42.96
2018-07-21T14:49:50.583Z,42.55
2018-07-21T14:50:51.041Z,43.43
2018-07-21T14:51:50.306Z,43.02
2018-07-21T14:52:50.630Z,43.59
2018-07-21T14:53:50.887Z,43.66
2018-07-21T14:54:50.468Z,44.35
2018-07-21T14:55:50.978Z,44.23
2018-07-21T14:56:50.909Z,44.73
2018-07-21T14:57:50.430Z,44.62
2018-07-21T14:58:51.000Z,44.53
2018-07-21T14:59:50.451Z,43.96
2018-07-21T15:01:14.270Z,43.37
2018-07-21T15:02:13.340Z,43.39
2018-07-21T15:03:13.557Z,43.32
2018-07-21T15:04:15.068Z,43.63
2018-07-21T15:05:14.548Z,44.52